Time;durP1;ratioP1;P1;durP2;ratioP2;P2;SDS_P1;SDS_P2;PMS_P1;PMS_P2;Temp;Humidity;BMP_temperature;BMP_pressure;BME280_temperature;BME280_humidity;BME280_pressure;Samples;Min_cycle;Max_cycle;Signal;HPM_P1;HPM_P2
2021/08/23 00:01:18;;;;;;;42.67;39.67;;;16.80;99.90;;;;;;6108057;23;20491;-86
2021/08/23 00:03:45;;;;;;;42.87;40.27;;;16.80;99.90;;;;;;6107809;23;20474;-86
2021/08/23 00:06:12;;;;;;;40.20;37.90;;;16.80;99.90;;;;;;6097850;23;20404;-84
2021/08/23 00:08:39;;;;;;;42.03;39.40;;;16.80;99.90;;;;;;6106369;23;20876;-87
2021/08/23 00:11:06;;;;;;;45.10;41.60;;;16.80;99.90;;;;;;6107621;23;20783;-86
2021/08/23 00:13:33;;;;;;;46.90;43.47;;;16.70;99.90;;;;;;6107931;23;20407;-85
2021/08/23 00:16:01;;;;;;;48.93;45.87;;;16.60;99.90;;;;;;6107897;23;20408;-86
2021/08/23 00:18:30;;;;;;;49.90;46.87;;;16.60;99.90;;;;;;6098140;23;20404;-87
2021/08/23 00:21:01;;;;;;;48.83;46.00;;;16.60;99.90;;;;;;6107288;23;20408;-87
2021/08/23 00:23:34;;;;;;;49.97;46.87;;;16.60;99.90;;;;;;6106438;23;20484;-88
2021/08/23 00:26:02;;;;;;;45.97;43.10;;;16.50;99.90;;;;;;6107405;23;20421;-86
2021/08/23 00:28:28;;;;;;;47.27;44.37;;;16.50;99.90;;;;;;6097474;23;20424;-84
2021/08/23 00:30:58;;;;;;;46.10;43.23;;;16.50;99.90;;;;;;6098062;23;20439;-87
2021/08/23 00:33:28;;;;;;;51.60;48.40;;;16.50;99.90;;;;;;6104719;23;20926;-84
2021/08/23 00:35:55;;;;;;;51.30;48.00;;;16.50;99.90;;;;;;6097957;23;20450;-86
2021/08/23 00:38:25;;;;;;;54.23;50.93;;;16.50;99.90;;;;;;6096515;23;20739;-87
2021/08/23 00:40:54;;;;;;;55.10;52.10;;;16.40;99.90;;;;;;6107316;23;20888;-86
2021/08/23 00:43:21;;;;;;;54.87;51.87;;;16.50;99.90;;;;;;6107740;23;20455;-84
2021/08/23 00:45:48;;;;;;;52.30;48.90;;;16.50;99.90;;;;;;6097676;23;20470;-87
2021/08/23 00:48:14;;;;;;;47.93;44.90;;;16.50;99.90;;;;;;6107005;23;20466;-86
2021/08/23 00:50:46;;;;;;;48.33;44.90;;;16.50;99.90;;;;;;6107562;23;20875;-86
2021/08/23 00:53:13;;;;;;;47.53;44.40;;;16.50;99.90;;;;;;6097457;23;20404;-86
2021/08/23 00:55:40;;;;;;;47.40;44.70;;;16.50;99.90;;;;;;6097297;23;20412;-87
2021/08/23 00:58:07;;;;;;;44.37;41.50;;;16.50;99.90;;;;;;6107557;23;20458;-86
2021/08/23 01:00:37;;;;;;;45.00;41.90;;;16.50;99.90;;;;;;6106758;23;20411;-88
2021/08/23 01:03:16;;;;;;;44.63;41.73;;;16.50;99.90;;;;;;6097503;23;20474;-88
2021/08/23 01:05:48;;;;;;;45.50;42.80;;;16.60;99.90;;;;;;6106996;23;20534;-84
2021/08/23 01:08:24;;;;;;;43.83;41.10;;;16.60;99.90;;;;;;6106295;23;20767;-85
2021/08/23 01:10:56;;;;;;;44.50;41.40;;;16.60;99.90;;;;;;6107342;23;20419;-86
2021/08/23 01:13:23;;;;;;;44.40;41.43;;;16.60;99.90;;;;;;6097410;23;20404;-87
2021/08/23 01:15:50;;;;;;;45.93;42.97;;;16.60;99.90;;;;;;6097502;23;20415;-86
2021/08/23 01:18:17;;;;;;;45.80;42.87;;;16.60;99.90;;;;;;6107325;23;20431;-87
2021/08/23 01:20:48;;;;;;;46.50;43.80;;;16.60;99.90;;;;;;6106951;23;20495;-84
2021/08/23 01:23:15;;;;;;;45.63;42.60;;;16.60;99.90;;;;;;6106813;23;20419;-89
2021/08/23 01:25:44;;;;;;;44.60;41.60;;;16.70;99.90;;;;;;6096871;23;20407;-89
2021/08/23 01:28:19;;;;;;;44.47;41.50;;;16.60;99.90;;;;;;6097213;23;20436;-87
2021/08/23 01:30:59;;;;;;;43.67;40.77;;;16.70;99.90;;;;;;6097262;23;20399;-84
2021/08/23 01:33:28;;;;;;;41.50;38.73;;;16.70;99.90;;;;;;6097330;23;20407;-85
2021/08/23 01:35:56;;;;;;;42.80;39.80;;;16.70;99.90;;;;;;6106789;23;20426;-87
2021/08/23 01:38:26;;;;;;;39.00;36.23;;;16.70;99.90;;;;;;6105497;23;20419;-87
2021/08/23 01:40:59;;;;;;;40.50;37.90;;;16.80;99.90;;;;;;6096911;23;20403;-85
2021/08/23 01:43:26;;;;;;;39.40;36.47;;;16.80;99.90;;;;;;6106605;23;20425;-84
2021/08/23 01:45:54;;;;;;;38.83;36.13;;;16.80;99.90;;;;;;6107023;23;20435;-84
2021/08/23 01:48:21;;;;;;;37.20;34.80;;;16.80;99.90;;;;;;6097197;23;20522;-86
2021/08/23 01:50:50;;;;;;;38.37;35.63;;;16.80;99.90;;;;;;6097001;23;20495;-86
2021/08/23 01:53:17;;;;;;;41.40;38.40;;;16.80;99.90;;;;;;6105857;23;20408;-86
2021/08/23 01:55:44;;;;;;;38.93;36.33;;;16.80;99.90;;;;;;6097240;23;20415;-86
2021/08/23 01:58:11;;;;;;;40.07;37.23;;;16.90;99.90;;;;;;6106565;23;20415;-85
2021/08/23 02:00:38;;;;;;;40.47;37.97;;;16.90;99.90;;;;;;6106680;23;20424;-88
2021/08/23 02:03:05;;;;;;;40.00;37.40;;;16.90;99.90;;;;;;6097062;23;20403;-86
2021/08/23 02:05:32;;;;;;;40.43;37.63;;;16.90;99.90;;;;;;6106453;23;20465;-84
2021/08/23 02:08:00;;;;;;;42.17;39.67;;;16.90;99.90;;;;;;6097165;23;20408;-86
2021/08/23 02:10:31;;;;;;;40.67;38.17;;;16.90;99.90;;;;;;6095574;23;20407;-83
2021/08/23 02:13:00;;;;;;;37.23;34.83;;;17.00;99.90;;;;;;6106589;23;20490;-84
2021/08/23 02:15:30;;;;;;;37.00;34.60;;;16.90;99.90;;;;;;6106892;23;20415;-87
2021/08/23 02:17:57;;;;;;;39.40;36.53;;;16.90;99.90;;;;;;6106816;23;20412;-86
2021/08/23 02:20:27;;;;;;;41.20;38.00;;;16.90;99.90;;;;;;6097078;23;20411;-86
2021/08/23 02:22:54;;;;;;;40.20;37.50;;;16.90;99.90;;;;;;6097050;23;20411;-86
2021/08/23 02:25:27;;;;;;;40.83;38.10;;;16.80;99.90;;;;;;6095854;23;20923;-86
2021/08/23 02:27:58;;;;;;;41.33;38.47;;;16.70;99.90;;;;;;6097054;23;20403;-87
2021/08/23 02:30:26;;;;;;;41.10;38.50;;;16.70;99.90;;;;;;6106139;23;20446;-86
2021/08/23 02:32:53;;;;;;;39.60;36.90;;;16.70;99.90;;;;;;6106746;23;20415;-89
2021/08/23 02:35:19;;;;;;;40.17;37.40;;;16.60;99.90;;;;;;6096594;23;20492;-86
2021/08/23 02:37:47;;;;;;;40.03;37.53;;;16.60;99.90;;;;;;6096643;23;20408;-83
2021/08/23 02:40:15;;;;;;;45.57;42.43;;;16.50;99.90;;;;;;6095934;23;20486;-88
2021/08/23 02:42:43;;;;;;;46.00;43.30;;;16.60;99.90;;;;;;6106293;23;20415;-86
2021/08/23 02:45:11;;;;;;;55.47;51.77;;;16.50;99.90;;;;;;6096455;23;20955;-85
2021/08/23 02:47:38;;;;;;;61.23;57.83;;;16.50;99.90;;;;;;6106858;23;20408;-86
2021/08/23 02:50:08;;;;;;;65.40;61.60;;;16.40;99.90;;;;;;6106466;23;20447;-84
2021/08/23 02:52:35;;;;;;;69.80;65.83;;;16.20;99.90;;;;;;6106777;23;20412;-86
2021/08/23 02:55:11;;;;;;;73.13;69.07;;;16.10;99.90;;;;;;6105322;23;20442;-85
2021/08/23 02:57:42;;;;;;;79.73;75.60;;;15.90;99.90;;;;;;6106441;23;20966;-87
2021/08/23 03:00:10;;;;;;;82.77;78.47;;;15.80;99.90;;;;;;6096552;23;20420;-88
2021/08/23 03:02:38;;;;;;;95.43;90.93;;;15.60;99.90;;;;;;6096972;23;20782;-88
2021/08/23 03:05:05;;;;;;;118.67;112.17;;;15.50;99.90;;;;;;6106119;23;20467;-87
2021/08/23 03:07:32;;;;;;;123.03;116.50;;;15.40;99.90;;;;;;6096833;23;20723;-85
2021/08/23 03:09:59;;;;;;;145.03;137.60;;;15.30;99.90;;;;;;6104678;23;20451;-84
2021/08/23 03:12:26;;;;;;;159.73;151.40;;;15.20;99.90;;;;;;6096852;23;20459;-85
2021/08/23 03:14:57;;;;;;;173.57;164.97;;;15.20;99.90;;;;;;6096475;23;20412;-85
2021/08/23 03:17:24;;;;;;;194.73;185.47;;;15.00;99.90;;;;;;6106564;23;20495;-83
2021/08/23 03:19:51;;;;;;;208.97;198.63;;;14.90;99.90;;;;;;6106374;23;20447;-86
2021/08/23 03:22:18;;;;;;;227.23;216.33;;;14.90;99.90;;;;;;6096849;23;20734;-85
2021/08/23 03:24:45;;;;;;;255.03;242.53;;;14.80;99.90;;;;;;6096529;23;20403;-87
2021/08/23 03:27:20;;;;;;;271.93;258.47;;;15.00;99.90;;;;;;6108096;23;20403;-85
2021/08/23 03:29:50;;;;;;;278.57;265.17;;;15.10;99.90;;;;;;6107891;23;20846;-87
2021/08/23 03:32:19;;;;;;;284.67;270.27;;;15.10;99.90;;;;;;6108278;23;20768;-84
2021/08/23 03:34:46;;;;;;;281.53;267.43;;;15.10;99.90;;;;;;6108154;23;20494;-85
2021/08/23 03:37:14;;;;;;;279.50;265.60;;;15.00;99.90;;;;;;6107790;23;20788;-87
2021/08/23 03:39:45;;;;;;;274.70;261.43;;;15.00;99.90;;;;;;6097021;23;20895;-85
2021/08/23 03:42:12;;;;;;;271.63;258.47;;;14.90;99.90;;;;;;6098461;23;20435;-86
2021/08/23 03:44:41;;;;;;;253.70;241.67;;;14.90;99.90;;;;;;6098482;23;20446;-86
2021/08/23 03:47:10;;;;;;;256.70;243.53;;;14.80;99.90;;;;;;6108066;23;20494;-86
2021/08/23 03:49:40;;;;;;;249.83;237.80;;;14.80;99.90;;;;;;6107475;23;20447;-87
2021/08/23 03:52:07;;;;;;;246.37;233.50;;;14.80;99.90;;;;;;6107679;23;20423;-86
2021/08/23 03:54:34;;;;;;;257.03;244.50;;;14.70;99.90;;;;;;6106973;23;20502;-85
2021/08/23 03:57:03;;;;;;;273.10;259.60;;;14.70;99.90;;;;;;6108049;23;20491;-86
2021/08/23 03:59:30;;;;;;;264.63;250.77;;;14.70;99.90;;;;;;6098212;23;20415;-84
2021/08/23 04:01:57;;;;;;;258.23;245.07;;;14.90;99.90;;;;;;6098071;23;20439;-84
2021/08/23 04:04:31;;;;;;;252.47;239.27;;;15.00;99.90;;;;;;6107349;23;20781;-85
2021/08/23 04:06:59;;;;;;;247.23;234.03;;;15.00;99.90;;;;;;6107610;23;20415;-83
2021/08/23 04:09:26;;;;;;;254.40;240.53;;;15.20;99.90;;;;;;6106204;23;20436;-86
2021/08/23 04:11:53;;;;;;;254.93;241.57;;;15.20;99.90;;;;;;6107437;23;20483;-88
2021/08/23 04:14:20;;;;;;;254.83;240.83;;;15.30;99.90;;;;;;6097825;23;20892;-87
2021/08/23 04:16:47;;;;;;;247.53;233.60;;;15.40;99.90;;;;;;6097979;23;20514;-86
2021/08/23 04:19:14;;;;;;;248.23;234.83;;;15.40;99.90;;;;;;6098054;23;20407;-87
2021/08/23 04:21:41;;;;;;;234.27;221.67;;;15.40;99.90;;;;;;6107838;23;20443;-88
2021/08/23 04:24:15;;;;;;;236.97;224.00;;;15.50;99.90;;;;;;6106189;23;20416;-87
2021/08/23 04:26:42;;;;;;;232.07;219.77;;;15.60;99.90;;;;;;6107998;23;20439;-88
2021/08/23 04:29:09;;;;;;;230.90;218.90;;;15.60;99.90;;;;;;6097843;23;20427;-87
2021/08/23 04:31:39;;;;;;;231.27;218.77;;;15.60;99.90;;;;;;6107607;23;20439;-87
2021/08/23 04:34:05;;;;;;;224.70;212.20;;;15.70;99.90;;;;;;6107763;23;20407;-85
2021/08/23 04:36:32;;;;;;;212.20;200.80;;;15.70;99.90;;;;;;6097593;23;20408;-86
2021/08/23 04:38:59;;;;;;;213.77;202.70;;;15.70;99.90;;;;;;6106056;23;20435;-86
2021/08/23 04:41:28;;;;;;;206.47;195.27;;;15.70;99.90;;;;;;6107352;23;20459;-87
2021/08/23 04:43:55;;;;;;;204.27;193.03;;;15.60;99.90;;;;;;6097751;23;20442;-85
2021/08/23 04:46:23;;;;;;;200.23;189.23;;;15.50;99.90;;;;;;6097755;23;20428;-79
2021/08/23 04:48:52;;;;;;;195.13;184.43;;;15.40;99.90;;;;;;6107686;23;20471;-87
2021/08/23 04:51:19;;;;;;;195.87;184.87;;;15.40;99.90;;;;;;6097689;23;20414;-87
2021/08/23 04:53:45;;;;;;;195.97;184.30;;;15.40;99.90;;;;;;6096545;23;20487;-78
2021/08/23 04:56:12;;;;;;;191.53;180.50;;;15.30;99.90;;;;;;6097524;23;20490;-77
2021/08/23 04:58:40;;;;;;;198.57;187.27;;;15.20;99.90;;;;;;6096976;23;20894;-77
2021/08/23 05:01:07;;;;;;;191.87;181.27;;;15.20;99.90;;;;;;6097728;23;20510;-77
2021/08/23 05:03:34;;;;;;;197.10;186.27;;;15.00;99.90;;;;;;6097512;23;20878;-77
2021/08/23 05:06:01;;;;;;;199.17;187.97;;;14.90;99.90;;;;;;6107239;23;20827;-77
2021/08/23 05:08:28;;;;;;;204.93;193.43;;;14.90;99.90;;;;;;6095933;23;20491;-87
2021/08/23 05:10:55;;;;;;;203.77;191.87;;;14.90;99.90;;;;;;6097535;23;20435;-86
2021/08/23 05:13:22;;;;;;;214.60;202.47;;;14.90;99.90;;;;;;6097513;23;20439;-87
2021/08/23 05:15:50;;;;;;;217.77;205.60;;;14.80;99.90;;;;;;6107261;23;20415;-87
2021/08/23 05:18:17;;;;;;;222.20;209.80;;;14.80;99.90;;;;;;6097528;23;20408;-87
2021/08/23 05:20:44;;;;;;;221.60;208.10;;;14.80;99.90;;;;;;6097312;23;20440;-83
2021/08/23 05:23:11;;;;;;;231.97;218.97;;;14.80;99.90;;;;;;6097498;23;20455;-84
2021/08/23 05:25:38;;;;;;;244.17;230.57;;;14.80;99.90;;;;;;6096005;23;20404;-89
2021/08/23 05:28:05;;;;;;;251.83;236.53;;;15.00;99.90;;;;;;6097373;23;20442;-88
2021/08/23 05:30:32;;;;;;;239.70;224.07;;;15.00;99.90;;;;;;6097353;23;20543;-86
2021/08/23 05:33:01;;;;;;;234.77;221.27;;;15.00;99.90;;;;;;6107269;23;20412;-88
2021/08/23 05:35:28;;;;;;;239.93;225.87;;;15.10;99.90;;;;;;6097345;23;20447;-89
2021/08/23 05:37:55;;;;;;;239.43;225.23;;;15.20;99.90;;;;;;6097003;23;20483;-87
2021/08/23 05:40:24;;;;;;;239.23;225.43;;;15.30;99.90;;;;;;6095948;23;20404;-90
2021/08/23 05:42:51;;;;;;;242.23;228.43;;;15.40;99.90;;;;;;6097532;23;20403;-89
2021/08/23 05:45:18;;;;;;;244.20;230.67;;;15.50;99.90;;;;;;6107040;23;20467;-88
2021/08/23 05:47:46;;;;;;;236.40;222.63;;;15.70;99.90;;;;;;6097161;23;20506;-90
2021/08/23 05:50:14;;;;;;;233.30;220.00;;;15.80;99.90;;;;;;6096823;23;20435;-90
2021/08/23 05:52:43;;;;;;;231.20;218.07;;;16.00;99.90;;;;;;6106708;23;20959;-91
2021/08/23 05:55:10;;;;;;;213.77;200.67;;;16.10;99.90;;;;;;6095905;23;20407;-90
2021/08/23 05:57:39;;;;;;;207.97;195.27;;;16.10;99.90;;;;;;6106547;23;20408;-89
2021/08/23 06:00:08;;;;;;;200.03;187.97;;;16.20;99.90;;;;;;6106627;23;20412;-90
2021/08/23 06:02:36;;;;;;;191.07;180.00;;;16.40;99.90;;;;;;6097207;23;20404;-88
2021/08/23 06:05:04;;;;;;;182.23;170.80;;;16.40;99.90;;;;;;6106715;23;20490;-85
2021/08/23 06:07:34;;;;;;;179.50;168.50;;;16.50;99.90;;;;;;6096930;23;20443;-84
2021/08/23 06:10:01;;;;;;;169.67;159.63;;;16.60;99.90;;;;;;6105286;23;20447;-90
2021/08/23 06:12:28;;;;;;;158.93;149.37;;;16.60;99.90;;;;;;6106923;23;20534;-91
2021/08/23 06:14:58;;;;;;;146.70;138.30;;;16.70;99.90;;;;;;6106794;23;20896;-87
2021/08/23 06:17:28;;;;;;;131.17;123.30;;;16.70;99.90;;;;;;6107095;23;20422;-91
2021/08/23 06:19:55;;;;;;;126.33;118.73;;;16.80;99.90;;;;;;6106549;23;20776;-92
2021/08/23 06:22:22;;;;;;;110.20;103.47;;;16.90;99.90;;;;;;6106321;23;20922;-87
2021/08/23 06:24:51;;;;;;;104.23;97.30;;;16.90;99.90;;;;;;6095750;23;20471;-86
2021/08/23 06:27:18;;;;;;;104.30;96.70;;;17.00;99.90;;;;;;6097730;23;20756;-89
2021/08/23 06:29:46;;;;;;;95.87;89.97;;;17.10;99.90;;;;;;6099990;23;20804;-88
2021/08/23 06:32:13;;;;;;;85.07;79.27;;;17.20;99.90;;;;;;6098252;23;20439;-92
2021/08/23 06:34:40;;;;;;;77.97;72.40;;;17.40;99.90;;;;;;6098918;23;20438;-92
2021/08/23 06:37:07;;;;;;;63.43;59.03;;;17.50;99.90;;;;;;6108244;23;20404;-92
2021/08/23 06:39:34;;;;;;;59.57;54.67;;;17.60;99.90;;;;;;6095329;23;20486;-90
2021/08/23 06:42:02;;;;;;;50.20;45.93;;;17.60;99.90;;;;;;6096973;23;20436;-86
2021/08/23 06:44:29;;;;;;;49.30;45.10;;;17.60;99.90;;;;;;6106850;23;20459;-89
2021/08/23 06:46:55;;;;;;;47.07;42.67;;;17.70;99.90;;;;;;6096613;23;20955;-87
2021/08/23 06:49:23;;;;;;;45.77;42.17;;;17.70;99.90;;;;;;6097016;23;20495;-84
2021/08/23 06:51:50;;;;;;;48.63;44.57;;;17.70;99.90;;;;;;6097321;23;20435;-94
2021/08/23 06:54:17;;;;;;;45.73;41.97;;;17.70;99.90;;;;;;6106051;23;20889;-90
2021/08/23 06:56:51;;;;;;;47.83;43.93;;;17.70;99.90;;;;;;6096776;23;20990;-92
2021/08/23 06:59:20;;;;;;;47.73;43.87;;;17.70;99.90;;;;;;6098303;23;20406;-84
2021/08/23 07:01:48;;;;;;;52.13;47.77;;;17.70;99.90;;;;;;6099254;23;20487;-91
2021/08/23 07:04:15;;;;;;;54.10;49.83;;;17.70;99.90;;;;;;6098779;23;20466;-88
2021/08/23 07:06:42;;;;;;;58.37;54.03;;;17.70;99.90;;;;;;6098905;23;20451;-80
2021/08/23 07:12:38;;;;;;;54.60;50.03;;;17.90;99.90;;;;;;6075535;23;20407;-90
2021/08/23 07:15:12;;;;;;;55.43;50.27;;;17.90;99.90;;;;;;6098714;23;20427;-89
2021/08/23 07:17:41;;;;;;;49.73;45.33;;;17.90;99.90;;;;;;6109511;23;20891;-91
2021/08/23 07:20:09;;;;;;;56.60;51.30;;;17.90;99.90;;;;;;6108043;23;20768;-90
2021/08/23 07:26:12;;;;;;;45.13;40.80;;;18.00;99.90;;;;;;6054391;23;20403;-87
2021/08/23 07:29:01;;;;;;;40.83;36.73;;;18.20;99.90;;;;;;6106617;23;20525;-84
2021/08/23 07:34:32;;;;;;;43.08;38.67;;;18.40;99.90;;;;;;6096916;23;20412;-88
2021/08/23 07:37:01;;;;;;;39.13;34.90;;;18.70;99.90;;;;;;6108175;23;20163;-82
2021/08/23 07:39:28;;;;;;;39.67;29.77;;;19.10;99.90;;;;;;6097128;23;20435;-81
2021/08/23 07:45:01;;;;;;;33.60;25.07;;;19.20;92.70;;;;;;6130934;23;20446;-80
2021/08/23 07:50:55;;;;;;;33.80;22.73;;;19.60;90.40;;;;;;6020587;23;20941;-79
2021/08/23 07:53:22;;;;;;;33.17;23.47;;;19.80;88.80;;;;;;6089244;23;20414;-78
2021/08/23 07:55:49;;;;;;;34.57;24.50;;;19.80;85.90;;;;;;6126826;23;20495;-82
2021/08/23 07:58:20;;;;;;;35.40;24.00;;;19.60;86.50;;;;;;6127736;23;20409;-85
2021/08/23 08:01:02;;;;;;;32.50;23.57;;;19.40;85.90;;;;;;6137067;23;20411;-83
2021/08/23 08:03:30;;;;;;;29.37;22.57;;;19.20;85.60;;;;;;6137033;23;21039;-78
2021/08/23 08:05:58;;;;;;;36.53;25.13;;;19.10;87.10;;;;;;6061842;23;20414;-80
2021/08/23 08:08:25;;;;;;;33.37;20.93;;;19.10;87.70;;;;;;6125937;23;20501;-80
2021/08/23 08:10:52;;;;;;;31.20;20.87;;;19.00;85.20;;;;;;6127427;23;20430;-79
2021/08/23 08:13:25;;;;;;;39.67;23.00;;;19.10;85.20;;;;;;6127557;23;20491;-85
2021/08/23 08:16:31;;;;;;;36.80;21.83;;;19.20;85.30;;;;;;6137199;23;20465;-86
2021/08/23 08:18:58;;;;;;;38.13;23.80;;;19.30;85.10;;;;;;6137007;23;20414;-82
2021/08/23 08:21:26;;;;;;;42.83;26.60;;;19.50;80.90;;;;;;6127500;23;20426;-79
2021/08/23 08:24:04;;;;;;;;;;;;;;;;;;;;;
2021/08/23 08:26:41;;;;;;;40.53;24.30;;;19.60;76.80;;;;;;6061734;23;20414;-88
2021/08/23 08:29:15;;;;;;;56.13;27.77;;;19.60;75.00;;;;;;6136302;23;20422;-88
2021/08/23 08:34:54;;;;;;;43.30;24.87;;;19.90;75.10;;;;;;6097152;23;20421;-85
2021/08/23 08:37:22;;;;;;;37.87;22.87;;;19.90;72.90;;;;;;6137405;23;20465;-87
2021/08/23 08:39:57;;;;;;;26.20;15.77;;;19.60;71.10;;;;;;6135892;23;20869;-84
2021/08/23 08:42:47;;;;;;;29.97;18.97;;;19.50;72.40;;;;;;6127112;23;20433;-87
2021/08/23 08:45:19;;;;;;;43.00;24.30;;;19.30;73.80;;;;;;6068655;23;20442;-88
2021/08/23 08:47:46;;;;;;;40.73;25.20;;;19.20;76.30;;;;;;6136797;23;20414;-90
2021/08/23 08:50:17;;;;;;;28.97;15.57;;;19.30;75.90;;;;;;6126441;23;20880;-89
2021/08/23 08:52:46;;;;;;;39.00;21.67;;;19.30;74.60;;;;;;6136605;23;20740;-88
2021/08/23 08:55:14;;;;;;;43.67;23.60;;;19.30;75.10;;;;;;6135807;23;20411;-87
2021/08/23 08:57:41;;;;;;;35.23;21.60;;;19.20;77.30;;;;;;6127047;23;20429;-86
2021/08/23 09:00:09;;;;;;;31.87;18.90;;;19.10;75.70;;;;;;6136824;23;20407;-86
2021/08/23 09:02:38;;;;;;;29.60;19.27;;;19.00;77.30;;;;;;6085575;23;20929;-81
2021/08/23 09:05:14;;;;;;;30.27;18.80;;;19.10;77.30;;;;;;6136501;23;20413;-87
2021/08/23 09:07:41;;;;;;;20.73;12.80;;;19.10;78.40;;;;;;6136420;23;20473;-89
2021/08/23 09:10:22;;;;;;;21.13;13.27;;;19.10;75.60;;;;;;6135206;23;20946;-89
2021/08/23 09:13:00;;;;;;;21.23;12.80;;;19.40;73.70;;;;;;6136974;23;20875;-76
2021/08/23 09:15:39;;;;;;;22.90;13.33;;;19.50;73.90;;;;;;6126942;23;20410;-90
2021/08/23 09:21:03;;;;;;;22.23;14.53;;;19.70;69.80;;;;;;6123192;23;20419;-86
2021/08/23 09:23:35;;;;;;;19.03;12.93;;;19.70;68.70;;;;;;6135041;23;20419;-83
2021/08/23 09:26:13;;;;;;;18.97;11.33;;;19.70;69.80;;;;;;6136537;23;20745;-87
2021/08/23 09:28:54;;;;;;;18.77;13.37;;;19.60;69.70;;;;;;6136564;23;20789;-85
2021/08/23 09:31:31;;;;;;;16.17;11.97;;;19.70;69.80;;;;;;6136461;23;20449;-82
2021/08/23 09:33:59;;;;;;;18.43;13.30;;;19.70;69.80;;;;;;6135967;23;20406;-83
2021/08/23 09:40:06;;;;;;;29.50;13.93;;;20.00;69.80;;;;;;6046003;23;20487;-87
2021/08/23 09:43:17;;;;;;;17.03;12.47;;;20.10;67.00;;;;;;6126641;23;20446;-87
2021/08/23 09:46:13;;;;;;;;;;;;;;;;;;;;;
2021/08/23 09:49:03;;;;;;;;;;;;;;;;;;;;;
2021/08/23 09:51:46;;;;;;;16.90;12.40;;;19.30;69.50;;;;;;6069443;23;20443;-84
2021/08/23 09:54:25;;;;;;;23.00;18.20;;;19.00;69.20;;;;;;6135394;23;20720;-87
2021/08/23 09:57:04;;;;;;;19.77;14.53;;;19.00;71.70;;;;;;6136138;23;20437;-87
2021/08/23 09:59:43;;;;;;;24.63;16.47;;;19.00;71.30;;;;;;6136242;23;20413;-85
2021/08/23 10:02:27;;;;;;;18.10;12.70;;;19.30;71.90;;;;;;6136414;23;20929;-88
2021/08/23 10:04:57;;;;;;;18.43;14.03;;;19.70;69.00;;;;;;6126574;23;20490;-87
2021/08/23 10:07:42;;;;;;;14.27;11.87;;;20.40;62.80;;;;;;6125609;23;20469;-89
2021/08/23 10:10:35;;;;;;;14.27;10.03;;;20.70;57.00;;;;;;6135134;23;20403;-89
2021/08/23 10:13:14;;;;;;;17.23;10.10;;;21.20;52.80;;;;;;6136090;23;20455;-89
2021/08/23 10:16:00;;;;;;;13.90;8.83;;;21.20;50.90;;;;;;6135675;23;20414;-86
2021/08/23 10:18:54;;;;;;;16.00;8.00;;;21.20;48.40;;;;;;6124234;23;20465;-86
2021/08/23 10:21:51;;;;;;;11.67;8.00;;;22.20;46.10;;;;;;6135781;23;20422;-86
2021/08/23 10:24:38;;;;;;;14.63;10.40;;;23.10;42.70;;;;;;6135126;23;20415;-87
2021/08/23 10:27:05;;;;;;;11.63;7.77;;;23.60;38.70;;;;;;6135966;23;20403;-88
2021/08/23 10:29:50;;;;;;;11.30;8.00;;;23.20;38.30;;;;;;6135699;23;20410;-86
2021/08/23 10:38:51;;;;;;;13.00;7.27;;;23.90;33.50;;;;;;6115967;23;20427;-87
2021/08/23 10:41:27;;;;;;;10.00;7.27;;;25.10;27.40;;;;;;6136041;23;20421;-87
2021/08/23 10:43:56;;;;;;;12.17;8.57;;;25.20;24.80;;;;;;6126266;23;20891;-84
2021/08/23 10:46:36;;;;;;;12.30;7.70;;;24.50;27.50;;;;;;6125140;23;20505;-88
2021/08/23 10:49:16;;;;;;;11.43;8.30;;;23.80;29.80;;;;;;6134488;23;20450;-84
2021/08/23 10:52:17;;;;;;;10.90;8.20;;;23.50;33.80;;;;;;6124816;23;20946;-85
2021/08/23 10:58:10;;;;;;;12.03;9.73;;;22.50;35.00;;;;;;6110496;23;20415;-87
2021/08/23 11:00:45;;;;;;;14.07;11.00;;;22.20;37.40;;;;;;6124563;23;20875;-85
2021/08/23 11:03:14;;;;;;;13.80;11.05;;;21.90;37.10;;;;;;6124336;23;20418;-81
2021/08/23 11:05:47;;;;;;;12.37;10.07;;;22.10;34.30;;;;;;6124845;23;20159;-88
2021/08/23 11:08:28;;;;;;;13.73;9.70;;;22.30;35.60;;;;;;6134745;23;20435;-85
2021/08/23 11:18:11;;;;;;;11.33;7.93;;;23.90;27.40;;;;;;5975647;24;20430;-84
2021/08/23 11:20:55;;;;;;;14.83;9.50;;;23.20;29.30;;;;;;5988119;24;20456;-85
2021/08/23 11:23:51;;;;;;;13.00;11.60;;;22.60;31.20;;;;;;6128944;23;20472;-87
2021/08/23 11:26:25;;;;;;;17.07;12.83;;;21.80;35.80;;;;;;6124727;23;20403;-86
2021/08/23 11:28:54;;;;;;;22.37;15.87;;;21.60;38.30;;;;;;6134089;23;20436;-87
2021/08/23 11:31:28;;;;;;;18.20;15.20;;;21.30;39.00;;;;;;6133967;23;20787;-86
2021/08/23 11:34:07;;;;;;;17.17;13.00;;;21.30;37.80;;;;;;6134443;23;20407;-88
2021/08/23 11:36:35;;;;;;;18.40;13.17;;;21.00;39.40;;;;;;6134377;23;20413;-81
2021/08/23 11:39:14;;;;;;;20.63;15.07;;;20.90;41.10;;;;;;6123111;23;20409;-80
2021/08/23 11:58:14;;;;;;;15.30;11.53;;;20.60;42.60;;;;;;5131106;27;20576;-77
2021/08/23 12:01:08;;;;;;;18.63;10.70;;;22.30;37.50;;;;;;5130996;28;20456;-81
2021/08/23 12:03:37;;;;;;;16.40;10.87;;;22.80;36.30;;;;;;5131119;28;20451;-83
2021/08/23 12:06:33;;;;;;;;;;;;;;;;;;;;;
2021/08/23 12:09:06;;;;;;;15.50;12.20;;;22.80;35.40;;;;;;5129838;28;20458;-84
2021/08/23 12:15:10;;;;;;;13.60;9.30;;;22.80;34.60;;;;;;5129249;28;20444;-83
2021/08/23 12:18:15;;;;;;;14.53;10.40;;;23.30;30.40;;;;;;5124290;28;20546;-86
2021/08/23 12:21:13;;;;;;;12.40;8.80;;;23.40;30.20;;;;;;5130672;28;20454;-83
2021/08/23 12:27:02;;;;;;;15.37;11.07;;;23.50;29.90;;;;;;5130165;28;20544;-86
2021/08/23 12:29:43;;;;;;;17.03;12.27;;;23.20;29.30;;;;;;5130724;28;20451;-86
2021/08/23 12:33:04;;;;;;;13.87;9.80;;;24.20;29.30;;;;;;5130449;28;20460;-83
2021/08/23 12:38:10;;;;;;;14.63;10.20;;;23.30;29.40;;;;;;5266534;22;20570;-82
2021/08/23 12:44:09;;;;;;;;;;;;;;;;;;;;;
2021/08/23 12:46:36;;;;;;;16.07;10.77;;;24.30;27.70;;;;;;5068866;28;20535;-82
2021/08/23 12:49:03;;;;;;;14.33;11.17;;;24.20;25.40;;;;;;5069201;28;20453;-79
2021/08/23 12:51:30;;;;;;;14.30;9.57;;;25.30;23.40;;;;;;5068918;28;20446;-79
2021/08/23 12:53:58;;;;;;;11.67;9.33;;;26.20;22.20;;;;;;5067610;28;20450;-79
2021/08/23 12:56:25;;;;;;;15.33;9.80;;;26.90;19.40;;;;;;5068770;28;20553;-79
2021/08/23 12:58:53;;;;;;;12.93;9.77;;;25.80;19.60;;;;;;5057104;28;20451;-78
2021/08/23 13:01:20;;;;;;;11.27;8.80;;;25.00;21.20;;;;;;5055486;28;20938;-79
2021/08/23 13:03:47;;;;;;;14.30;10.27;;;24.50;23.00;;;;;;5055553;28;20505;-79
2021/08/23 13:06:14;;;;;;;16.70;10.07;;;24.50;24.80;;;;;;5055394;28;20475;-79
2021/08/23 13:08:41;;;;;;;13.17;9.97;;;24.00;23.50;;;;;;5054216;28;21030;-79
2021/08/23 13:11:10;;;;;;;15.63;10.03;;;23.90;24.70;;;;;;5055315;28;20457;-81
2021/08/23 13:13:37;;;;;;;11.93;7.67;;;24.00;24.20;;;;;;5055324;28;20456;-78
2021/08/23 13:16:04;;;;;;;16.53;8.87;;;23.30;25.90;;;;;;5055326;28;20501;-78
2021/08/23 13:18:31;;;;;;;12.97;9.27;;;22.90;27.40;;;;;;5055420;28;20459;-79
2021/08/23 13:20:58;;;;;;;14.47;9.70;;;22.60;29.40;;;;;;5055250;28;20859;-81
2021/08/23 13:23:25;;;;;;;15.13;10.30;;;22.60;29.40;;;;;;5054660;28;20452;-76
2021/08/23 13:26:08;;;;;;;14.33;10.70;;;22.50;28.80;;;;;;5054981;28;20458;-86
2021/08/23 13:28:39;;;;;;;13.13;9.63;;;23.00;28.40;;;;;;5054998;28;20451;-87
2021/08/23 13:31:09;;;;;;;14.50;11.90;;;23.50;26.20;;;;;;5054935;28;20876;-86
2021/08/23 13:34:15;;;;;;;14.93;11.23;;;23.20;27.50;;;;;;5055617;28;20451;-86
2021/08/23 13:37:34;;;;;;;13.50;11.13;;;22.90;29.10;;;;;;5055566;28;20467;-86
2021/08/23 13:40:22;;;;;;;13.27;10.50;;;22.60;29.80;;;;;;4896806;29;20458;-84
2021/08/23 13:42:53;;;;;;;16.27;12.80;;;22.30;31.70;;;;;;4897847;29;20482;-86
2021/08/23 13:45:21;;;;;;;16.40;12.83;;;22.50;31.90;;;;;;5030514;28;20458;-80
2021/08/23 13:48:18;;;;;;;14.63;11.60;;;22.60;31.80;;;;;;5054822;28;20493;-90
2021/08/23 13:51:10;;;;;;;14.87;11.50;;;22.90;28.20;;;;;;5054613;28;20455;-83
2021/08/23 13:57:19;;;;;;;15.37;10.80;;;23.40;27.80;;;;;;5053019;28;20505;-82
2021/08/23 13:59:46;;;;;;;13.47;10.90;;;23.60;27.50;;;;;;5054709;28;20642;-78
2021/08/23 14:02:14;;;;;;;14.17;10.80;;;23.00;29.10;;;;;;5054475;28;20456;-78
2021/08/23 14:04:41;;;;;;;16.80;12.90;;;23.10;29.30;;;;;;5054434;28;20952;-78
2021/08/23 14:07:08;;;;;;;12.77;10.03;;;23.00;29.10;;;;;;5054112;28;20487;-79